KDNN/DNN METAR and TAF weather

Enter ICAO airport designator
Station Type Date Time Source
KDNN METAR 2019/12/08 13:55 UTC NOAA

KDNN 081355Z AUTO 16006KT 10SM SCT060 10/03 A3032 RMK AO2


Station Type Date Time Source
KDNN Decoded METAR 2019/12/08 13:55 UTC NOAA

Dalton, Dalton Municipal Airport, GA, United States (KDNN) 34-43-18N 084-52-09W
Dec 08, 2019 - 08:55 AM EST / 2019.12.08 1355 UTC
Wind: from the SSE (160 degrees) at 7 MPH (6 KT):0
Visibility: 10 mile(s):0
Sky conditions: partly cloudy
Temperature: 50 F (10 C)
Dew Point: 37 F (3 C)
Relative Humidity: 61%
Pressure (altimeter): 30.32 in. Hg (1026 hPa)
ob: KDNN 081355Z AUTO 16006KT 10SM SCT060 10/03 A3032 RMK AO2
cycle: 14

Station Type Date Time Source
KDNN TAF UTC NOAA

Error!

Example: see airport list